createdAt,value
2023-04-19T00:00:17.165Z,21.70
2023-04-19T00:02:44.377Z,21.90
2023-04-19T00:05:13.991Z,22.10
2023-04-19T00:07:41.391Z,22.10
2023-04-19T00:10:08.949Z,22.30
2023-04-19T00:12:36.439Z,22.20
2023-04-19T00:15:03.527Z,22.10
2023-04-19T00:17:30.735Z,22.30
2023-04-19T00:19:58.204Z,22.30
2023-04-19T00:22:25.497Z,22.40
2023-04-19T00:24:52.869Z,22.50
2023-04-19T00:27:19.927Z,22.50
2023-04-19T00:29:46.969Z,22.50
2023-04-19T00:32:13.991Z,22.70
2023-04-19T00:34:40.922Z,23.00
2023-04-19T00:37:10.101Z,23.10
2023-04-19T00:39:37.879Z,22.80
2023-04-19T00:42:04.861Z,23.40
2023-04-19T00:44:31.938Z,23.10
2023-04-19T00:47:00.012Z,23.00
2023-04-19T00:49:28.009Z,22.90
2023-04-19T00:51:56.838Z,22.70
2023-04-19T00:54:24.515Z,22.50
2023-04-19T00:56:52.051Z,22.60
2023-04-19T00:59:19.468Z,22.80
2023-04-19T01:01:46.534Z,22.60
2023-04-19T01:04:14.065Z,22.50
2023-04-19T01:06:42.148Z,22.40
2023-04-19T01:09:09.511Z,22.60
2023-04-19T01:11:36.522Z,22.50
2023-04-19T01:14:03.651Z,22.50
2023-04-19T01:16:30.790Z,22.60
2023-04-19T01:18:57.809Z,22.50
2023-04-19T01:21:25.155Z,22.50
2023-04-19T01:23:52.409Z,22.50
2023-04-19T01:26:19.692Z,22.60
2023-04-19T01:28:46.638Z,23.00
2023-04-19T01:31:15.932Z,23.00
2023-04-19T01:33:43.003Z,22.70
2023-04-19T01:36:10.401Z,22.70
2023-04-19T01:38:37.369Z,22.80
2023-04-19T01:41:04.414Z,23.10
2023-04-19T01:43:31.465Z,23.00
2023-04-19T01:45:58.518Z,22.90
2023-04-19T01:48:25.721Z,23.10
2023-04-19T01:50:52.801Z,22.80
2023-04-19T01:53:19.893Z,22.70
2023-04-19T01:55:46.882Z,22.40
2023-04-19T01:58:13.924Z,22.50
2023-04-19T02:00:40.926Z,22.70
2023-04-19T02:03:08.253Z,22.80
2023-04-19T02:05:35.493Z,22.70
2023-04-19T02:08:02.514Z,22.50
2023-04-19T02:10:29.523Z,22.30
2023-04-19T02:12:56.560Z,22.40
2023-04-19T02:15:23.672Z,22.20
2023-04-19T02:17:50.722Z,22.30
2023-04-19T02:20:17.861Z,22.40
2023-04-19T02:22:45.254Z,22.50
2023-04-19T02:25:12.371Z,22.30
2023-04-19T02:27:39.420Z,22.40
2023-04-19T02:30:07.163Z,22.20
2023-04-19T02:32:34.374Z,22.10
2023-04-19T02:35:01.409Z,21.90
2023-04-19T02:37:28.412Z,22.00
2023-04-19T02:39:55.455Z,22.10
2023-04-19T02:42:22.504Z,21.90
2023-04-19T02:44:49.596Z,22.00
2023-04-19T02:47:16.537Z,22.00
2023-04-19T02:49:43.565Z,22.30
2023-04-19T02:52:11.124Z,22.50
2023-04-19T02:54:38.175Z,22.40
2023-04-19T02:57:05.164Z,22.50
2023-04-19T02:59:32.236Z,22.50
2023-04-19T03:01:59.197Z,22.50
2023-04-19T03:04:27.221Z,22.50
2023-04-19T03:06:54.366Z,22.50
2023-04-19T03:09:21.540Z,22.70
2023-04-19T03:11:49.725Z,22.70
2023-04-19T03:14:16.944Z,22.50
2023-04-19T03:16:44.113Z,22.70
2023-04-19T03:19:11.083Z,22.50
2023-04-19T03:21:38.080Z,22.50
2023-04-19T03:24:06.120Z,22.50
2023-04-19T03:26:33.093Z,22.70
2023-04-19T03:29:00.162Z,22.60
2023-04-19T03:31:27.148Z,22.60
2023-04-19T03:33:54.292Z,22.50
2023-04-19T03:36:21.864Z,22.60
2023-04-19T03:38:48.852Z,22.50
2023-04-19T03:41:26.381Z,22.70
2023-04-19T03:43:53.501Z,22.90
2023-04-19T03:46:20.555Z,22.70
2023-04-19T03:48:48.731Z,23.00
2023-04-19T03:51:16.448Z,23.20
2023-04-19T03:53:43.503Z,23.40
2023-04-19T03:56:12.966Z,23.70
2023-04-19T03:58:41.034Z,23.90
2023-04-19T04:01:17.497Z,24.10
2023-04-19T04:03:44.791Z,24.40
2023-04-19T04:06:12.016Z,24.30
2023-04-19T04:08:39.114Z,24.20
2023-04-19T04:11:06.211Z,24.20
2023-04-19T04:13:33.231Z,24.10
2023-04-19T04:16:01.026Z,23.80
2023-04-19T04:18:28.721Z,24.00
2023-04-19T04:20:58.086Z,23.90
2023-04-19T04:23:25.832Z,23.60
2023-04-19T04:26:04.496Z,23.60
2023-04-19T04:28:32.173Z,23.80
2023-04-19T04:31:00.339Z,23.20
2023-04-19T04:33:28.456Z,23.20
2023-04-19T04:35:57.939Z,23.20
2023-04-19T04:38:25.750Z,23.10
2023-04-19T04:40:53.971Z,23.00
2023-04-19T04:43:25.992Z,23.10
2023-04-19T04:45:55.764Z,23.00
2023-04-19T04:48:22.842Z,22.90
2023-04-19T04:50:50.313Z,23.70
2023-04-19T04:53:17.347Z,22.90
2023-04-19T04:55:44.670Z,22.70
2023-04-19T04:58:11.795Z,22.60
2023-04-19T05:00:39.012Z,22.90
2023-04-19T05:03:06.423Z,22.80
2023-04-19T05:05:34.002Z,22.70
2023-04-19T05:08:01.439Z,22.70
2023-04-19T05:10:28.439Z,22.50
2023-04-19T05:12:55.713Z,22.70
2023-04-19T05:15:24.066Z,22.80
2023-04-19T05:17:51.212Z,22.80
2023-04-19T05:20:18.442Z,22.60
2023-04-19T05:22:45.920Z,22.80
2023-04-19T05:25:12.881Z,22.40
2023-04-19T05:27:39.891Z,22.50
2023-04-19T05:30:07.647Z,22.80
2023-04-19T05:32:34.766Z,22.60
2023-04-19T05:35:01.744Z,22.60
2023-04-19T05:37:28.911Z,23.00
2023-04-19T05:39:55.960Z,23.20
2023-04-19T05:42:22.941Z,22.90
2023-04-19T05:44:49.997Z,23.10
2023-04-19T05:47:17.716Z,22.80
2023-04-19T05:49:44.768Z,23.10
2023-04-19T05:52:12.128Z,23.00
2023-04-19T05:54:40.486Z,23.10
2023-04-19T05:57:07.747Z,22.90
2023-04-19T05:59:34.778Z,23.00
2023-04-19T06:02:02.276Z,22.50
2023-04-19T06:04:29.553Z,21.70
2023-04-19T06:06:56.747Z,21.90
2023-04-19T06:09:23.762Z,21.70
2023-04-19T06:11:51.802Z,21.10
2023-04-19T06:14:19.823Z,21.20
2023-04-19T06:16:47.183Z,21.40
2023-04-19T06:19:14.442Z,21.80
2023-04-19T06:21:41.464Z,22.00
2023-04-19T06:24:09.063Z,22.10
2023-04-19T06:26:36.199Z,21.80
2023-04-19T06:29:03.329Z,22.10
2023-04-19T06:31:30.406Z,20.90
2023-04-19T06:33:57.480Z,20.70
2023-04-19T06:36:25.011Z,20.40
2023-04-19T06:38:51.962Z,21.00
2023-04-19T06:41:19.577Z,21.20
2023-04-19T06:43:46.711Z,21.00
2023-04-19T06:46:16.627Z,20.50
2023-04-19T06:48:43.808Z,21.50
2023-04-19T06:51:10.861Z,20.70
2023-04-19T06:53:38.054Z,21.40
2023-04-19T06:56:05.867Z,21.70
2023-04-19T06:58:34.956Z,21.70
2023-04-19T07:01:04.569Z,21.70
2023-04-19T07:03:31.990Z,21.90
2023-04-19T07:05:59.479Z,21.50
2023-04-19T07:08:34.869Z,21.50
2023-04-19T07:11:06.280Z,20.80
2023-04-19T07:13:33.458Z,20.80
2023-04-19T07:16:03.914Z,20.50
2023-04-19T07:18:31.071Z,19.80
2023-04-19T07:20:58.011Z,20.00
2023-04-19T07:23:25.623Z,20.00
2023-04-19T07:25:52.691Z,19.70
2023-04-19T07:28:19.758Z,19.00
2023-04-19T07:30:46.778Z,18.50
2023-04-19T07:33:13.858Z,19.30
2023-04-19T07:35:41.016Z,19.40
2023-04-19T07:38:08.140Z,19.50
2023-04-19T07:40:35.142Z,19.40
2023-04-19T07:43:02.087Z,19.20
2023-04-19T07:45:31.782Z,19.30
2023-04-19T07:47:58.801Z,19.50
2023-04-19T07:50:27.197Z,19.20
2023-04-19T07:52:54.293Z,18.60
2023-04-19T07:55:21.510Z,19.10
2023-04-19T07:57:49.348Z,18.90
2023-04-19T08:00:21.914Z,18.10
2023-04-19T08:02:49.740Z,18.20
2023-04-19T08:05:17.801Z,18.20
2023-04-19T08:07:45.198Z,18.30
2023-04-19T08:10:12.764Z,18.00
2023-04-19T08:12:50.351Z,18.30
2023-04-19T08:17:57.436Z,17.60
2023-04-19T08:20:24.585Z,18.10
2023-04-19T08:22:51.824Z,17.80
2023-04-19T08:25:18.960Z,17.90
2023-04-19T08:27:45.984Z,17.90
2023-04-19T08:30:13.545Z,18.10
2023-04-19T08:32:40.728Z,17.80
2023-04-19T08:35:08.826Z,18.00
2023-04-19T08:37:36.323Z,17.70
2023-04-19T08:40:04.269Z,17.70
2023-04-19T08:42:36.725Z,17.40
2023-04-19T08:50:23.906Z,17.80
2023-04-19T08:53:05.225Z,17.60
2023-04-19T08:55:59.068Z,17.80
2023-04-19T08:58:52.056Z,17.40
2023-04-19T09:01:33.775Z,17.00
2023-04-19T09:04:26.434Z,16.80
2023-04-19T09:06:53.117Z,17.50
2023-04-19T09:09:37.210Z,17.20
2023-04-19T09:12:18.152Z,17.50
2023-04-19T09:15:01.163Z,16.80
2023-04-19T09:17:30.402Z,16.20
2023-04-19T09:19:58.543Z,16.30
2023-04-19T09:22:26.394Z,16.20
2023-04-19T09:25:30.662Z,17.00
2023-04-19T09:27:40.504Z,17.10
2023-04-19T09:30:12.685Z,16.50
2023-04-19T09:32:49.386Z,15.90
2023-04-19T09:35:16.790Z,15.80
2023-04-19T09:40:24.802Z,16.30
2023-04-19T09:48:08.005Z,16.70
2023-04-19T09:50:50.993Z,16.80
2023-04-19T09:53:24.272Z,16.70
2023-04-19T09:56:00.309Z,16.40
2023-04-19T10:01:13.247Z,16.70
2023-04-19T10:03:43.376Z,16.90
2023-04-19T10:06:35.617Z,16.80
2023-04-19T10:09:05.917Z,16.80
2023-04-19T10:11:44.745Z,17.10
2023-04-19T10:14:14.728Z,16.80
2023-04-19T10:16:41.940Z,16.50
2023-04-19T10:19:12.850Z,16.70
2023-04-19T10:21:42.599Z,16.50
2023-04-19T10:24:12.886Z,16.70
2023-04-19T10:27:11.395Z,16.70
2023-04-19T10:30:01.375Z,16.60
2023-04-19T10:32:42.469Z,16.50
2023-04-19T10:35:21.094Z,16.50
2023-04-19T10:38:07.033Z,16.20
2023-04-19T10:40:56.187Z,16.10
2023-04-19T10:43:28.816Z,15.90
2023-04-19T10:46:02.210Z,16.40
2023-04-19T10:48:35.357Z,16.30
2023-04-19T10:51:38.902Z,16.50
2023-04-19T10:54:30.219Z,16.50
2023-04-19T10:57:00.375Z,15.90
2023-04-19T10:59:31.597Z,17.00
2023-04-19T11:02:01.295Z,16.40
2023-04-19T11:04:51.538Z,16.50
2023-04-19T11:07:18.928Z,16.10
2023-04-19T11:09:46.705Z,16.30
2023-04-19T11:12:18.495Z,16.70
2023-04-19T11:14:46.443Z,17.50
2023-04-19T11:17:28.126Z,17.50
2023-04-19T11:20:10.900Z,18.00
2023-04-19T11:22:43.511Z,18.00
2023-04-19T11:25:14.472Z,18.50
2023-04-19T11:27:42.935Z,18.50
2023-04-19T11:30:29.038Z,18.80
2023-04-19T11:32:57.710Z,18.70
2023-04-19T11:35:27.606Z,18.00
2023-04-19T11:37:56.598Z,18.40
2023-04-19T11:40:26.353Z,18.00
2023-04-19T11:43:01.197Z,17.90
2023-04-19T11:45:32.587Z,18.20
2023-04-19T11:48:05.466Z,17.90
2023-04-19T11:50:50.530Z,17.90
2023-04-19T11:53:17.600Z,17.50
2023-04-19T11:55:47.413Z,17.50
2023-04-19T11:58:38.577Z,17.50
2023-04-19T12:01:14.124Z,17.50
2023-04-19T12:03:46.608Z,17.40
2023-04-19T12:06:32.014Z,17.20
2023-04-19T12:08:59.135Z,16.90
2023-04-19T12:11:41.829Z,17.60
2023-04-19T12:14:17.609Z,17.60
2023-04-19T12:16:47.478Z,18.00
2023-04-19T12:19:20.767Z,17.80
2023-04-19T12:21:48.184Z,18.10
2023-04-19T12:24:17.440Z,18.90
2023-04-19T12:26:56.325Z,18.90
2023-04-19T12:29:23.522Z,19.70
2023-04-19T12:31:51.128Z,20.50
2023-04-19T12:34:18.391Z,20.60
2023-04-19T12:36:45.407Z,21.10
2023-04-19T12:39:13.554Z,21.60
2023-04-19T12:41:41.306Z,21.70
2023-04-19T12:44:08.327Z,22.00
2023-04-19T12:46:35.443Z,21.90
2023-04-19T12:49:02.519Z,22.10
2023-04-19T12:51:31.812Z,22.10
2023-04-19T12:53:59.826Z,22.50
2023-04-19T12:56:26.985Z,22.80
2023-04-19T12:58:54.041Z,22.30
2023-04-19T13:01:21.078Z,21.80
2023-04-19T13:03:48.799Z,21.90
2023-04-19T13:06:17.384Z,22.00
2023-04-19T13:08:47.432Z,21.50
2023-04-19T13:11:16.212Z,21.70
2023-04-19T13:13:43.327Z,22.30
2023-04-19T13:16:11.159Z,22.70
2023-04-19T13:18:38.453Z,22.10
2023-04-19T13:21:08.000Z,22.30
2023-04-19T13:23:36.356Z,23.00
2023-04-19T13:26:03.426Z,23.00
2023-04-19T13:28:31.226Z,22.90
2023-04-19T13:30:58.346Z,23.90
2023-04-19T13:33:27.096Z,24.00
2023-04-19T13:35:54.053Z,24.00
2023-04-19T13:38:20.984Z,24.40
2023-04-19T13:40:48.026Z,24.40
2023-04-19T13:43:14.987Z,24.90
2023-04-19T13:45:41.910Z,25.10
2023-04-19T13:48:09.035Z,25.10
2023-04-19T13:50:36.291Z,25.00
2023-04-19T13:53:03.319Z,25.90
2023-04-19T13:55:30.489Z,26.30
2023-04-19T13:57:57.519Z,26.10
2023-04-19T14:00:24.667Z,26.00
2023-04-19T14:02:52.632Z,25.90
2023-04-19T14:05:19.904Z,25.60
2023-04-19T14:07:47.067Z,26.10
2023-04-19T14:10:14.172Z,25.50
2023-04-19T14:12:41.504Z,25.20
2023-04-19T14:15:08.954Z,25.20
2023-04-19T14:17:36.202Z,25.40
2023-04-19T14:20:07.272Z,25.10
2023-04-19T14:22:35.556Z,25.30
2023-04-19T14:25:04.188Z,25.50
2023-04-19T14:27:31.554Z,25.90
2023-04-19T14:30:00.798Z,25.90
2023-04-19T14:32:28.072Z,26.20
2023-04-19T14:34:56.328Z,25.90
2023-04-19T14:37:24.523Z,25.70
2023-04-19T14:39:52.103Z,25.50
2023-04-19T14:42:21.679Z,25.20
2023-04-19T14:44:51.606Z,25.70
2023-04-19T14:47:19.032Z,25.40
2023-04-19T14:49:46.165Z,25.50
2023-04-19T14:52:13.411Z,25.20
2023-04-19T14:54:42.356Z,25.30
2023-04-19T14:57:09.657Z,25.60
2023-04-19T14:59:36.746Z,25.70
2023-04-19T15:02:03.845Z,25.90
2023-04-19T15:04:34.017Z,25.60
2023-04-19T15:07:01.410Z,25.60
2023-04-19T15:09:28.400Z,24.80
2023-04-19T15:11:55.466Z,24.80
2023-04-19T15:14:22.815Z,24.40
2023-04-19T15:16:49.903Z,24.30
2023-04-19T15:19:17.090Z,24.60
2023-04-19T15:21:44.489Z,24.40
2023-04-19T15:24:11.990Z,25.10
2023-04-19T15:26:42.834Z,24.80
2023-04-19T15:29:11.418Z,24.50
2023-04-19T15:31:38.666Z,24.40
2023-04-19T15:34:05.835Z,24.40
2023-04-19T15:36:34.370Z,24.60
2023-04-19T15:39:01.360Z,24.80
2023-04-19T15:41:28.553Z,25.20
2023-04-19T15:43:56.024Z,25.10
2023-04-19T15:46:23.168Z,24.30
2023-04-19T15:48:50.886Z,23.90
2023-04-19T15:51:18.225Z,23.90
2023-04-19T15:53:45.230Z,23.90
2023-04-19T15:56:13.029Z,24.20
2023-04-19T15:58:40.048Z,23.70
2023-04-19T16:01:13.361Z,22.90
2023-04-19T16:03:41.376Z,23.10
2023-04-19T16:06:08.676Z,23.60
2023-04-19T16:08:36.242Z,23.40
2023-04-19T16:11:07.919Z,23.50
2023-04-19T16:13:35.107Z,23.50
2023-04-19T16:16:02.399Z,23.50
2023-04-19T16:18:29.608Z,23.40
2023-04-19T16:20:56.647Z,23.50
2023-04-19T16:23:24.751Z,23.50
2023-04-19T16:25:51.916Z,22.80
2023-04-19T16:28:19.893Z,23.70
2023-04-19T16:30:50.046Z,24.00
2023-04-19T16:33:17.109Z,23.80
2023-04-19T16:35:44.745Z,24.80
2023-04-19T16:38:11.776Z,24.80
2023-04-19T16:40:38.834Z,24.10
2023-04-19T16:43:06.534Z,24.20
2023-04-19T16:45:35.152Z,23.40
2023-04-19T16:48:02.420Z,23.40
2023-04-19T16:50:29.553Z,23.30
2023-04-19T16:52:56.598Z,23.70
2023-04-19T16:55:23.651Z,24.00
2023-04-19T16:57:51.836Z,23.40
2023-04-19T17:00:19.228Z,23.70
2023-04-19T17:02:46.609Z,23.60
2023-04-19T17:05:16.109Z,24.10
2023-04-19T17:07:44.104Z,23.60
2023-04-19T17:10:11.907Z,23.50
2023-04-19T17:12:39.010Z,23.40
2023-04-19T17:15:06.889Z,23.60
2023-04-19T17:17:36.947Z,23.70
2023-04-19T17:20:06.281Z,23.10
2023-04-19T17:22:33.388Z,23.20
2023-04-19T17:25:00.637Z,23.10
2023-04-19T17:27:27.795Z,23.10
2023-04-19T17:29:54.888Z,23.00
2023-04-19T17:32:21.939Z,22.80
2023-04-19T17:34:49.156Z,22.90
2023-04-19T17:37:16.251Z,23.10
2023-04-19T17:39:43.578Z,23.10
2023-04-19T17:42:10.781Z,23.50
2023-04-19T17:44:37.839Z,23.50
2023-04-19T17:47:05.031Z,23.20
2023-04-19T17:49:32.169Z,22.80
2023-04-19T17:51:59.324Z,23.00
2023-04-19T17:54:28.706Z,23.10
2023-04-19T17:56:56.003Z,23.10
2023-04-19T17:59:23.034Z,23.40
2023-04-19T18:01:50.230Z,23.10
2023-04-19T18:04:20.749Z,23.00
2023-04-19T18:06:47.894Z,22.80
2023-04-19T18:09:15.529Z,22.80
2023-04-19T18:11:46.052Z,22.80
2023-04-19T18:14:13.325Z,22.50
2023-04-19T18:16:40.382Z,22.60
2023-04-19T18:19:08.093Z,22.70
2023-04-19T18:21:35.686Z,22.20
2023-04-19T18:24:02.773Z,22.40
2023-04-19T18:26:41.243Z,22.80
2023-04-19T18:29:09.059Z,22.70
2023-04-19T18:31:36.381Z,22.50
2023-04-19T18:34:03.749Z,22.40
2023-04-19T18:36:31.726Z,22.40
2023-04-19T18:38:58.799Z,23.20
2023-04-19T18:41:26.109Z,22.50
2023-04-19T18:44:24.897Z,22.70
2023-04-19T18:46:41.790Z,22.90
2023-04-19T18:49:09.005Z,22.80
2023-04-19T18:51:36.706Z,22.80
2023-04-19T18:54:04.006Z,22.40
2023-04-19T18:57:07.153Z,22.30
2023-04-19T18:59:18.315Z,22.20
2023-04-19T19:01:45.946Z,22.50
2023-04-19T19:04:37.153Z,22.70
2023-04-19T19:07:18.064Z,22.60
2023-04-19T19:09:56.246Z,23.00
2023-04-19T19:12:23.632Z,22.80
2023-04-19T19:14:50.732Z,22.70
2023-04-19T19:17:17.880Z,22.50
2023-04-19T19:19:45.309Z,23.10
2023-04-19T19:22:24.887Z,23.70
2023-04-19T19:24:55.172Z,23.20
2023-04-19T19:27:22.255Z,23.40
2023-04-19T19:29:49.372Z,23.20
2023-04-19T19:32:16.667Z,22.60
2023-04-19T19:34:54.457Z,22.90
2023-04-19T19:37:23.427Z,22.80
2023-04-19T19:39:50.961Z,22.30
2023-04-19T19:42:19.844Z,22.70
2023-04-19T19:44:46.991Z,23.00
2023-04-19T19:47:16.996Z,22.70
2023-04-19T19:50:08.854Z,22.50
2023-04-19T19:52:32.133Z,22.30
2023-04-19T19:54:59.941Z,22.60
2023-04-19T20:00:08.437Z,22.80
2023-04-19T20:02:54.736Z,22.30
2023-04-19T20:05:24.067Z,22.10
2023-04-19T20:10:21.340Z,22.20
2023-04-19T20:12:48.516Z,22.40
2023-04-19T20:15:15.572Z,22.10
2023-04-19T20:17:43.893Z,21.90
2023-04-19T20:20:11.669Z,22.30
2023-04-19T20:22:38.816Z,22.20
2023-04-19T20:25:06.739Z,22.10
2023-04-19T20:27:35.096Z,22.80
2023-04-19T20:30:02.242Z,22.80
2023-04-19T20:32:30.853Z,22.30
2023-04-19T20:34:58.104Z,22.10
2023-04-19T20:37:26.938Z,22.30
2023-04-19T20:39:56.113Z,22.00
2023-04-19T20:42:23.576Z,21.90
2023-04-19T20:44:50.898Z,22.40
2023-04-19T20:47:18.422Z,23.10
2023-04-19T20:49:46.633Z,23.10
2023-04-19T20:52:15.142Z,24.10
2023-04-19T20:54:42.186Z,24.10
2023-04-19T20:57:10.107Z,24.30
2023-04-19T20:59:37.187Z,24.40
2023-04-19T21:02:04.253Z,24.30
2023-04-19T21:04:31.490Z,24.10
2023-04-19T21:07:00.435Z,23.70
2023-04-19T21:09:30.133Z,23.50
2023-04-19T21:11:58.576Z,23.90
2023-04-19T21:14:25.674Z,23.50
2023-04-19T21:16:52.723Z,23.20
2023-04-19T21:19:19.884Z,22.80
2023-04-19T21:21:46.877Z,22.60
2023-04-19T21:24:13.866Z,22.30
2023-04-19T21:26:40.917Z,22.20
2023-04-19T21:29:07.938Z,22.50
2023-04-19T21:31:35.081Z,22.80
2023-04-19T21:34:02.523Z,23.00
2023-04-19T21:36:29.638Z,23.20
2023-04-19T21:38:56.591Z,23.20
2023-04-19T21:41:23.648Z,23.20
2023-04-19T21:43:50.899Z,22.80
2023-04-19T21:46:17.904Z,22.80
2023-04-19T21:48:44.961Z,22.70
2023-04-19T21:51:14.114Z,22.40
2023-04-19T21:53:41.126Z,22.30
2023-04-19T21:56:08.850Z,22.60
2023-04-19T21:58:36.041Z,22.60
2023-04-19T22:01:03.126Z,22.50
2023-04-19T22:03:30.904Z,22.80
2023-04-19T22:06:02.077Z,23.20
2023-04-19T22:08:31.548Z,22.90
2023-04-19T22:11:00.683Z,22.90
2023-04-19T22:13:30.828Z,22.90
2023-04-19T22:15:57.841Z,22.40
2023-04-19T22:18:25.364Z,23.30
2023-04-19T22:20:53.321Z,23.40
2023-04-19T22:23:20.533Z,23.50
2023-04-19T22:25:47.662Z,23.60
2023-04-19T22:28:14.634Z,24.20
2023-04-19T22:30:41.721Z,25.00
2023-04-19T22:33:08.956Z,25.00
2023-04-19T22:35:36.468Z,24.10
2023-04-19T22:38:03.510Z,23.60
2023-04-19T22:40:31.029Z,23.00
2023-04-19T22:42:58.083Z,22.70
2023-04-19T22:45:26.792Z,23.30
2023-04-19T22:47:53.914Z,23.20
2023-04-19T22:50:22.272Z,22.90
2023-04-19T22:52:49.610Z,22.50
2023-04-19T22:55:16.928Z,22.20
2023-04-19T22:57:44.098Z,22.20
2023-04-19T23:00:11.604Z,22.10
2023-04-19T23:02:39.315Z,22.30
2023-04-19T23:05:07.125Z,22.20
2023-04-19T23:07:34.527Z,22.00
2023-04-19T23:10:03.351Z,22.00
2023-04-19T23:12:31.224Z,22.00
2023-04-19T23:14:58.721Z,22.30
2023-04-19T23:17:26.588Z,22.60
2023-04-19T23:19:54.147Z,22.70
2023-04-19T23:22:21.389Z,22.60
2023-04-19T23:24:48.435Z,22.50
2023-04-19T23:27:15.579Z,22.60
2023-04-19T23:29:42.536Z,22.60
2023-04-19T23:32:09.528Z,22.40
2023-04-19T23:34:36.575Z,22.50
2023-04-19T23:37:03.527Z,22.70
2023-04-19T23:39:30.708Z,22.70
2023-04-19T23:41:58.128Z,22.50
2023-04-19T23:44:27.450Z,22.30
2023-04-19T23:46:54.500Z,22.30
2023-04-19T23:49:21.927Z,22.50
2023-04-19T23:51:50.533Z,22.60
2023-04-19T23:54:21.294Z,22.80
2023-04-19T23:56:49.767Z,22.70
2023-04-19T23:59:17.194Z,22.70
